sensor_id;sensor_type;location;lat;lon;timestamp;P1;durP1;ratioP1;P2;durP2;ratioP2
44328;SDS011;30039;51.462;6.892;2023-05-10T00:00:06;9.77;;;5.63;;
44328;SDS011;30039;51.462;6.892;2023-05-10T00:02:52;8.18;;;5.75;;
44328;SDS011;30039;51.462;6.892;2023-05-10T00:05:37;10.85;;;6.47;;
44328;SDS011;30039;51.462;6.892;2023-05-10T00:08:23;9.27;;;5.47;;
44328;SDS011;30039;51.462;6.892;2023-05-10T00:11:09;8.82;;;5.80;;
44328;SDS011;30039;51.462;6.892;2023-05-10T00:13:54;9.13;;;6.25;;
44328;SDS011;30039;51.462;6.892;2023-05-10T00:16:40;9.07;;;6.03;;
44328;SDS011;30039;51.462;6.892;2023-05-10T00:19:26;9.25;;;6.32;;
44328;SDS011;30039;51.462;6.892;2023-05-10T00:22:12;10.13;;;6.38;;
44328;SDS011;30039;51.462;6.892;2023-05-10T00:24:57;10.48;;;6.95;;
44328;SDS011;30039;51.462;6.892;2023-05-10T00:27:43;9.75;;;7.07;;
44328;SDS011;30039;51.462;6.892;2023-05-10T00:30:29;9.90;;;6.40;;
44328;SDS011;30039;51.462;6.892;2023-05-10T00:33:14;11.23;;;6.90;;
44328;SDS011;30039;51.462;6.892;2023-05-10T00:36:00;8.95;;;6.10;;
44328;SDS011;30039;51.462;6.892;2023-05-10T00:38:46;9.80;;;6.28;;
44328;SDS011;30039;51.462;6.892;2023-05-10T00:41:31;10.35;;;6.70;;
44328;SDS011;30039;51.462;6.892;2023-05-10T00:44:18;12.57;;;7.38;;
44328;SDS011;30039;51.462;6.892;2023-05-10T00:47:03;12.55;;;7.53;;
44328;SDS011;30039;51.462;6.892;2023-05-10T00:49:49;12.32;;;7.55;;
44328;SDS011;30039;51.462;6.892;2023-05-10T00:52:36;13.07;;;8.00;;
44328;SDS011;30039;51.462;6.892;2023-05-10T00:55:22;16.33;;;8.35;;
44328;SDS011;30039;51.462;6.892;2023-05-10T00:58:07;12.85;;;7.57;;
44328;SDS011;30039;51.462;6.892;2023-05-10T01:00:54;14.68;;;8.23;;
44328;SDS011;30039;51.462;6.892;2023-05-10T01:03:40;14.52;;;8.50;;
44328;SDS011;30039;51.462;6.892;2023-05-10T01:06:26;13.88;;;8.07;;
44328;SDS011;30039;51.462;6.892;2023-05-10T01:09:13;16.75;;;8.38;;
44328;SDS011;30039;51.462;6.892;2023-05-10T01:11:58;17.20;;;9.13;;
44328;SDS011;30039;51.462;6.892;2023-05-10T01:14:44;22.45;;;9.20;;
44328;SDS011;30039;51.462;6.892;2023-05-10T01:17:30;13.40;;;8.00;;
44328;SDS011;30039;51.462;6.892;2023-05-10T01:20:16;15.65;;;8.25;;
44328;SDS011;30039;51.462;6.892;2023-05-10T01:34:56;12.55;;;6.82;;
44328;SDS011;30039;51.462;6.892;2023-05-10T01:37:46;13.55;;;8.50;;
44328;SDS011;30039;51.462;6.892;2023-05-10T01:40:37;11.60;;;7.32;;
44328;SDS011;30039;51.462;6.892;2023-05-10T01:43:30;10.43;;;6.72;;
44328;SDS011;30039;51.462;6.892;2023-05-10T01:46:17;12.02;;;6.95;;
44328;SDS011;30039;51.462;6.892;2023-05-10T01:49:16;10.63;;;7.10;;
44328;SDS011;30039;51.462;6.892;2023-05-10T01:52:09;12.90;;;7.80;;
44328;SDS011;30039;51.462;6.892;2023-05-10T01:55:00;10.77;;;7.25;;
44328;SDS011;30039;51.462;6.892;2023-05-10T01:57:47;12.88;;;7.22;;
44328;SDS011;30039;51.462;6.892;2023-05-10T02:00:35;12.70;;;7.53;;
44328;SDS011;30039;51.462;6.892;2023-05-10T02:03:25;11.52;;;7.05;;
44328;SDS011;30039;51.462;6.892;2023-05-10T02:06:11;12.32;;;7.75;;
44328;SDS011;30039;51.462;6.892;2023-05-10T02:08:58;14.00;;;7.97;;
44328;SDS011;30039;51.462;6.892;2023-05-10T02:11:45;11.32;;;7.32;;
44328;SDS011;30039;51.462;6.892;2023-05-10T02:14:34;13.95;;;8.05;;
44328;SDS011;30039;51.462;6.892;2023-05-10T02:17:20;11.68;;;7.45;;
44328;SDS011;30039;51.462;6.892;2023-05-10T02:20:07;12.57;;;7.38;;
44328;SDS011;30039;51.462;6.892;2023-05-10T02:22:54;12.15;;;7.30;;
44328;SDS011;30039;51.462;6.892;2023-05-10T02:25:41;11.85;;;7.07;;
44328;SDS011;30039;51.462;6.892;2023-05-10T02:28:28;11.68;;;7.40;;
44328;SDS011;30039;51.462;6.892;2023-05-10T02:31:14;11.85;;;7.30;;
44328;SDS011;30039;51.462;6.892;2023-05-10T02:34:00;13.23;;;7.00;;
44328;SDS011;30039;51.462;6.892;2023-05-10T02:36:46;12.93;;;7.57;;
44328;SDS011;30039;51.462;6.892;2023-05-10T02:39:32;16.60;;;7.85;;
44328;SDS011;30039;51.462;6.892;2023-05-10T02:42:18;13.35;;;7.78;;
44328;SDS011;30039;51.462;6.892;2023-05-10T02:45:05;14.70;;;7.25;;
44328;SDS011;30039;51.462;6.892;2023-05-10T02:47:53;11.95;;;7.50;;
44328;SDS011;30039;51.462;6.892;2023-05-10T02:50:38;14.50;;;7.75;;
44328;SDS011;30039;51.462;6.892;2023-05-10T02:53:31;12.80;;;7.78;;
44328;SDS011;30039;51.462;6.892;2023-05-10T02:56:25;14.30;;;7.45;;
44328;SDS011;30039;51.462;6.892;2023-05-10T02:59:11;14.27;;;7.90;;
44328;SDS011;30039;51.462;6.892;2023-05-10T03:01:56;11.63;;;7.13;;
44328;SDS011;30039;51.462;6.892;2023-05-10T03:04:42;12.65;;;7.45;;
44328;SDS011;30039;51.462;6.892;2023-05-10T03:07:29;13.52;;;7.68;;
44328;SDS011;30039;51.462;6.892;2023-05-10T03:10:15;14.57;;;8.38;;
44328;SDS011;30039;51.462;6.892;2023-05-10T03:13:12;15.38;;;8.15;;
44328;SDS011;30039;51.462;6.892;2023-05-10T03:16:08;14.32;;;8.52;;
44328;SDS011;30039;51.462;6.892;2023-05-10T03:21:50;16.55;;;8.68;;
44328;SDS011;30039;51.462;6.892;2023-05-10T03:24:38;18.38;;;8.75;;
44328;SDS011;30039;51.462;6.892;2023-05-10T03:27:25;14.52;;;8.82;;
44328;SDS011;30039;51.462;6.892;2023-05-10T03:30:12;13.88;;;8.63;;
44328;SDS011;30039;51.462;6.892;2023-05-10T03:32:57;10.57;;;7.65;;
44328;SDS011;30039;51.462;6.892;2023-05-10T03:35:43;11.98;;;7.95;;
44328;SDS011;30039;51.462;6.892;2023-05-10T03:38:31;12.88;;;7.82;;
44328;SDS011;30039;51.462;6.892;2023-05-10T03:41:16;12.90;;;7.53;;
44328;SDS011;30039;51.462;6.892;2023-05-10T03:44:02;12.65;;;8.13;;
44328;SDS011;30039;51.462;6.892;2023-05-10T03:46:48;14.38;;;8.52;;
44328;SDS011;30039;51.462;6.892;2023-05-10T03:49:34;15.02;;;8.65;;
44328;SDS011;30039;51.462;6.892;2023-05-10T03:52:19;16.80;;;9.00;;
44328;SDS011;30039;51.462;6.892;2023-05-10T03:55:06;16.73;;;9.50;;
44328;SDS011;30039;51.462;6.892;2023-05-10T03:57:52;16.30;;;9.55;;
44328;SDS011;30039;51.462;6.892;2023-05-10T04:00:39;19.15;;;10.00;;
44328;SDS011;30039;51.462;6.892;2023-05-10T04:03:29;20.65;;;9.70;;
44328;SDS011;30039;51.462;6.892;2023-05-10T04:06:14;19.30;;;9.93;;
44328;SDS011;30039;51.462;6.892;2023-05-10T04:09:00;19.17;;;10.30;;
44328;SDS011;30039;51.462;6.892;2023-05-10T04:11:49;17.67;;;10.55;;
44328;SDS011;30039;51.462;6.892;2023-05-10T04:14:35;22.75;;;11.30;;
44328;SDS011;30039;51.462;6.892;2023-05-10T04:17:20;20.65;;;11.18;;
44328;SDS011;30039;51.462;6.892;2023-05-10T04:20:06;18.38;;;10.63;;
44328;SDS011;30039;51.462;6.892;2023-05-10T04:22:52;21.23;;;11.07;;
44328;SDS011;30039;51.462;6.892;2023-05-10T04:25:38;19.25;;;10.93;;
44328;SDS011;30039;51.462;6.892;2023-05-10T04:28:23;20.73;;;11.05;;
44328;SDS011;30039;51.462;6.892;2023-05-10T04:31:09;25.10;;;11.93;;
44328;SDS011;30039;51.462;6.892;2023-05-10T04:33:55;22.92;;;12.02;;
44328;SDS011;30039;51.462;6.892;2023-05-10T04:36:40;22.05;;;11.68;;
44328;SDS011;30039;51.462;6.892;2023-05-10T04:39:26;26.92;;;12.30;;
44328;SDS011;30039;51.462;6.892;2023-05-10T04:42:12;24.92;;;12.18;;
44328;SDS011;30039;51.462;6.892;2023-05-10T04:45:00;26.63;;;13.25;;
44328;SDS011;30039;51.462;6.892;2023-05-10T04:47:45;25.42;;;12.82;;
44328;SDS011;30039;51.462;6.892;2023-05-10T04:50:32;28.30;;;14.02;;
44328;SDS011;30039;51.462;6.892;2023-05-10T04:53:18;25.10;;;13.60;;
44328;SDS011;30039;51.462;6.892;2023-05-10T04:56:04;24.33;;;13.82;;
44328;SDS011;30039;51.462;6.892;2023-05-10T04:58:49;25.15;;;13.80;;
44328;SDS011;30039;51.462;6.892;2023-05-10T05:01:35;26.30;;;13.30;;
44328;SDS011;30039;51.462;6.892;2023-05-10T05:04:21;25.25;;;13.77;;
44328;SDS011;30039;51.462;6.892;2023-05-10T05:07:08;23.92;;;13.80;;
44328;SDS011;30039;51.462;6.892;2023-05-10T05:09:54;25.88;;;14.43;;
44328;SDS011;30039;51.462;6.892;2023-05-10T05:12:40;26.83;;;14.73;;
44328;SDS011;30039;51.462;6.892;2023-05-10T05:15:25;27.63;;;14.32;;
44328;SDS011;30039;51.462;6.892;2023-05-10T05:18:11;24.77;;;13.75;;
44328;SDS011;30039;51.462;6.892;2023-05-10T05:20:57;30.70;;;16.60;;
44328;SDS011;30039;51.462;6.892;2023-05-10T05:23:44;29.23;;;16.23;;
44328;SDS011;30039;51.462;6.892;2023-05-10T05:26:30;26.33;;;16.05;;
44328;SDS011;30039;51.462;6.892;2023-05-10T05:29:16;27.30;;;14.35;;
44328;SDS011;30039;51.462;6.892;2023-05-10T05:32:02;33.03;;;16.27;;
44328;SDS011;30039;51.462;6.892;2023-05-10T05:34:47;24.77;;;14.20;;
44328;SDS011;30039;51.462;6.892;2023-05-10T05:37:33;26.77;;;14.23;;
44328;SDS011;30039;51.462;6.892;2023-05-10T05:40:18;27.35;;;14.65;;
44328;SDS011;30039;51.462;6.892;2023-05-10T05:43:05;26.27;;;14.52;;
44328;SDS011;30039;51.462;6.892;2023-05-10T05:45:54;28.27;;;14.77;;
44328;SDS011;30039;51.462;6.892;2023-05-10T05:48:39;29.60;;;14.27;;
44328;SDS011;30039;51.462;6.892;2023-05-10T05:51:25;26.40;;;13.95;;
44328;SDS011;30039;51.462;6.892;2023-05-10T05:54:11;27.35;;;15.02;;
44328;SDS011;30039;51.462;6.892;2023-05-10T05:56:57;29.50;;;15.25;;
44328;SDS011;30039;51.462;6.892;2023-05-10T05:59:43;28.27;;;15.18;;
44328;SDS011;30039;51.462;6.892;2023-05-10T06:02:29;24.77;;;13.93;;
44328;SDS011;30039;51.462;6.892;2023-05-10T06:05:15;21.50;;;13.40;;
44328;SDS011;30039;51.462;6.892;2023-05-10T06:08:01;30.75;;;14.82;;
44328;SDS011;30039;51.462;6.892;2023-05-10T06:10:46;32.17;;;15.52;;
44328;SDS011;30039;51.462;6.892;2023-05-10T06:13:32;30.70;;;16.27;;
44328;SDS011;30039;51.462;6.892;2023-05-10T06:16:20;31.42;;;15.50;;
44328;SDS011;30039;51.462;6.892;2023-05-10T06:19:06;34.45;;;16.55;;
44328;SDS011;30039;51.462;6.892;2023-05-10T06:21:51;34.08;;;16.92;;
44328;SDS011;30039;51.462;6.892;2023-05-10T06:24:37;35.03;;;16.30;;
44328;SDS011;30039;51.462;6.892;2023-05-10T06:27:23;33.15;;;16.35;;
44328;SDS011;30039;51.462;6.892;2023-05-10T06:30:10;32.17;;;15.73;;
44328;SDS011;30039;51.462;6.892;2023-05-10T06:32:58;32.40;;;16.25;;
44328;SDS011;30039;51.462;6.892;2023-05-10T06:35:44;30.58;;;15.80;;
44328;SDS011;30039;51.462;6.892;2023-05-10T06:38:30;28.92;;;14.70;;
44328;SDS011;30039;51.462;6.892;2023-05-10T06:41:15;32.28;;;15.77;;
44328;SDS011;30039;51.462;6.892;2023-05-10T06:44:01;34.63;;;15.95;;
44328;SDS011;30039;51.462;6.892;2023-05-10T06:46:47;34.30;;;16.92;;
44328;SDS011;30039;51.462;6.892;2023-05-10T06:49:32;35.72;;;18.08;;
44328;SDS011;30039;51.462;6.892;2023-05-10T06:52:20;40.42;;;16.80;;
44328;SDS011;30039;51.462;6.892;2023-05-10T06:55:06;28.40;;;15.50;;
44328;SDS011;30039;51.462;6.892;2023-05-10T06:57:52;28.48;;;16.42;;
44328;SDS011;30039;51.462;6.892;2023-05-10T07:00:38;37.17;;;16.27;;
44328;SDS011;30039;51.462;6.892;2023-05-10T07:03:25;34.15;;;16.60;;
44328;SDS011;30039;51.462;6.892;2023-05-10T07:06:11;32.50;;;15.82;;
44328;SDS011;30039;51.462;6.892;2023-05-10T07:08:57;34.25;;;16.40;;
44328;SDS011;30039;51.462;6.892;2023-05-10T07:11:43;33.35;;;16.02;;
44328;SDS011;30039;51.462;6.892;2023-05-10T07:14:29;35.67;;;15.65;;
44328;SDS011;30039;51.462;6.892;2023-05-10T07:17:14;36.88;;;16.98;;
44328;SDS011;30039;51.462;6.892;2023-05-10T07:20:00;33.10;;;16.63;;
44328;SDS011;30039;51.462;6.892;2023-05-10T07:22:46;33.40;;;17.45;;
44328;SDS011;30039;51.462;6.892;2023-05-10T07:25:32;32.83;;;15.77;;
44328;SDS011;30039;51.462;6.892;2023-05-10T07:28:18;33.03;;;16.48;;
44328;SDS011;30039;51.462;6.892;2023-05-10T07:31:04;35.67;;;17.52;;
44328;SDS011;30039;51.462;6.892;2023-05-10T07:33:49;31.58;;;16.23;;
44328;SDS011;30039;51.462;6.892;2023-05-10T07:36:35;34.03;;;16.40;;
44328;SDS011;30039;51.462;6.892;2023-05-10T07:39:21;33.75;;;16.20;;
44328;SDS011;30039;51.462;6.892;2023-05-10T07:42:07;33.17;;;15.00;;
44328;SDS011;30039;51.462;6.892;2023-05-10T07:44:52;34.67;;;15.27;;
44328;SDS011;30039;51.462;6.892;2023-05-10T07:47:38;33.90;;;14.95;;
44328;SDS011;30039;51.462;6.892;2023-05-10T07:50:23;35.10;;;15.98;;
44328;SDS011;30039;51.462;6.892;2023-05-10T07:53:09;30.58;;;13.93;;
44328;SDS011;30039;51.462;6.892;2023-05-10T07:55:57;26.63;;;13.23;;
44328;SDS011;30039;51.462;6.892;2023-05-10T07:58:43;23.52;;;12.70;;
44328;SDS011;30039;51.462;6.892;2023-05-10T08:01:32;30.48;;;12.65;;
44328;SDS011;30039;51.462;6.892;2023-05-10T08:04:18;26.50;;;13.60;;
44328;SDS011;30039;51.462;6.892;2023-05-10T08:07:04;28.88;;;13.40;;
44328;SDS011;30039;51.462;6.892;2023-05-10T08:09:50;27.85;;;14.02;;
44328;SDS011;30039;51.462;6.892;2023-05-10T08:12:38;32.45;;;13.52;;
44328;SDS011;30039;51.462;6.892;2023-05-10T08:15:24;27.20;;;13.80;;
44328;SDS011;30039;51.462;6.892;2023-05-10T08:18:10;28.10;;;13.45;;
44328;SDS011;30039;51.462;6.892;2023-05-10T08:20:56;26.65;;;11.75;;
44328;SDS011;30039;51.462;6.892;2023-05-10T08:23:42;27.15;;;11.55;;
44328;SDS011;30039;51.462;6.892;2023-05-10T08:26:28;25.60;;;12.07;;
44328;SDS011;30039;51.462;6.892;2023-05-10T08:29:14;24.58;;;11.60;;
44328;SDS011;30039;51.462;6.892;2023-05-10T08:32:00;25.85;;;12.65;;
44328;SDS011;30039;51.462;6.892;2023-05-10T08:34:46;24.25;;;11.95;;
44328;SDS011;30039;51.462;6.892;2023-05-10T08:37:32;25.75;;;11.65;;
44328;SDS011;30039;51.462;6.892;2023-05-10T08:40:19;25.33;;;12.30;;
44328;SDS011;30039;51.462;6.892;2023-05-10T08:43:05;27.40;;;13.10;;
44328;SDS011;30039;51.462;6.892;2023-05-10T08:45:53;36.17;;;13.98;;
44328;SDS011;30039;51.462;6.892;2023-05-10T08:48:39;30.02;;;13.93;;
44328;SDS011;30039;51.462;6.892;2023-05-10T08:51:25;33.63;;;14.10;;
44328;SDS011;30039;51.462;6.892;2023-05-10T08:54:12;36.35;;;13.90;;
44328;SDS011;30039;51.462;6.892;2023-05-10T08:56:58;33.40;;;14.15;;
44328;SDS011;30039;51.462;6.892;2023-05-10T08:59:43;32.83;;;13.75;;
44328;SDS011;30039;51.462;6.892;2023-05-10T09:02:29;29.42;;;12.88;;
44328;SDS011;30039;51.462;6.892;2023-05-10T09:05:15;27.25;;;12.93;;
44328;SDS011;30039;51.462;6.892;2023-05-10T09:08:01;30.08;;;12.88;;
44328;SDS011;30039;51.462;6.892;2023-05-10T09:10:47;26.08;;;13.35;;
44328;SDS011;30039;51.462;6.892;2023-05-10T09:13:33;29.27;;;13.30;;
44328;SDS011;30039;51.462;6.892;2023-05-10T09:16:20;27.80;;;12.77;;
44328;SDS011;30039;51.462;6.892;2023-05-10T09:19:06;28.30;;;11.80;;
44328;SDS011;30039;51.462;6.892;2023-05-10T09:21:53;25.40;;;12.65;;
44328;SDS011;30039;51.462;6.892;2023-05-10T09:24:39;24.98;;;12.52;;
44328;SDS011;30039;51.462;6.892;2023-05-10T09:27:29;22.52;;;11.25;;
44328;SDS011;30039;51.462;6.892;2023-05-10T09:33:03;28.73;;;13.75;;
44328;SDS011;30039;51.462;6.892;2023-05-10T09:35:49;25.83;;;12.45;;
44328;SDS011;30039;51.462;6.892;2023-05-10T09:41:32;20.88;;;10.27;;
44328;SDS011;30039;51.462;6.892;2023-05-10T09:44:19;17.27;;;9.90;;
44328;SDS011;30039;51.462;6.892;2023-05-10T09:47:05;19.50;;;10.27;;
44328;SDS011;30039;51.462;6.892;2023-05-10T09:49:52;21.70;;;10.95;;
44328;SDS011;30039;51.462;6.892;2023-05-10T09:58:23;18.50;;;9.93;;
44328;SDS011;30039;51.462;6.892;2023-05-10T10:01:11;18.00;;;9.40;;
44328;SDS011;30039;51.462;6.892;2023-05-10T10:03:57;18.65;;;10.43;;
44328;SDS011;30039;51.462;6.892;2023-05-10T10:06:43;20.23;;;10.20;;
44328;SDS011;30039;51.462;6.892;2023-05-10T10:09:29;18.65;;;10.02;;
44328;SDS011;30039;51.462;6.892;2023-05-10T10:12:14;19.27;;;10.38;;
44328;SDS011;30039;51.462;6.892;2023-05-10T10:15:00;18.83;;;9.18;;
44328;SDS011;30039;51.462;6.892;2023-05-10T10:17:46;17.23;;;9.77;;
44328;SDS011;30039;51.462;6.892;2023-05-10T10:20:33;16.17;;;9.63;;
44328;SDS011;30039;51.462;6.892;2023-05-10T10:23:19;19.42;;;10.35;;
44328;SDS011;30039;51.462;6.892;2023-05-10T10:26:04;17.92;;;10.77;;
44328;SDS011;30039;51.462;6.892;2023-05-10T10:31:47;15.77;;;10.15;;
44328;SDS011;30039;51.462;6.892;2023-05-10T10:34:36;23.63;;;9.98;;
44328;SDS011;30039;51.462;6.892;2023-05-10T10:37:23;17.77;;;9.35;;
44328;SDS011;30039;51.462;6.892;2023-05-10T10:43:27;14.77;;;8.68;;
44328;SDS011;30039;51.462;6.892;2023-05-10T10:49:08;19.65;;;9.45;;
44328;SDS011;30039;51.462;6.892;2023-05-10T10:52:14;16.30;;;9.50;;
44328;SDS011;30039;51.462;6.892;2023-05-10T10:57:47;18.60;;;8.40;;
44328;SDS011;30039;51.462;6.892;2023-05-10T11:00:37;17.20;;;9.52;;
44328;SDS011;30039;51.462;6.892;2023-05-10T11:03:25;19.27;;;9.60;;
44328;SDS011;30039;51.462;6.892;2023-05-10T11:06:12;21.60;;;8.98;;
44328;SDS011;30039;51.462;6.892;2023-05-10T11:08:57;17.33;;;8.98;;
44328;SDS011;30039;51.462;6.892;2023-05-10T11:11:52;20.42;;;9.93;;
44328;SDS011;30039;51.462;6.892;2023-05-10T11:14:40;19.95;;;9.55;;
44328;SDS011;30039;51.462;6.892;2023-05-10T11:17:28;22.02;;;10.75;;
44328;SDS011;30039;51.462;6.892;2023-05-10T11:20:14;15.23;;;9.35;;
44328;SDS011;30039;51.462;6.892;2023-05-10T11:23:21;17.20;;;9.82;;
44328;SDS011;30039;51.462;6.892;2023-05-10T11:26:07;16.38;;;10.15;;
44328;SDS011;30039;51.462;6.892;2023-05-10T11:28:54;19.77;;;10.88;;
44328;SDS011;30039;51.462;6.892;2023-05-10T11:31:44;19.77;;;10.02;;
44328;SDS011;30039;51.462;6.892;2023-05-10T11:34:31;16.17;;;9.55;;
44328;SDS011;30039;51.462;6.892;2023-05-10T11:37:18;17.90;;;9.25;;
44328;SDS011;30039;51.462;6.892;2023-05-10T11:40:04;18.05;;;9.27;;
44328;SDS011;30039;51.462;6.892;2023-05-10T11:42:50;13.52;;;8.32;;
44328;SDS011;30039;51.462;6.892;2023-05-10T11:45:36;14.68;;;8.52;;
44328;SDS011;30039;51.462;6.892;2023-05-10T11:48:22;12.07;;;8.23;;
44328;SDS011;30039;51.462;6.892;2023-05-10T11:51:09;17.67;;;7.72;;
44328;SDS011;30039;51.462;6.892;2023-05-10T11:53:56;14.32;;;8.55;;
44328;SDS011;30039;51.462;6.892;2023-05-10T11:56:42;15.65;;;9.20;;
44328;SDS011;30039;51.462;6.892;2023-05-10T11:59:27;14.52;;;9.93;;
44328;SDS011;30039;51.462;6.892;2023-05-10T12:02:13;14.82;;;8.90;;
44328;SDS011;30039;51.462;6.892;2023-05-10T12:04:59;13.55;;;7.88;;
44328;SDS011;30039;51.462;6.892;2023-05-10T12:07:45;13.75;;;7.57;;
44328;SDS011;30039;51.462;6.892;2023-05-10T12:10:34;12.25;;;7.78;;
44328;SDS011;30039;51.462;6.892;2023-05-10T12:13:20;9.27;;;6.45;;
44328;SDS011;30039;51.462;6.892;2023-05-10T12:16:16;9.93;;;5.65;;
44328;SDS011;30039;51.462;6.892;2023-05-10T12:19:03;7.20;;;4.70;;
44328;SDS011;30039;51.462;6.892;2023-05-10T12:21:51;7.28;;;4.18;;
44328;SDS011;30039;51.462;6.892;2023-05-10T12:24:36;8.77;;;4.93;;
44328;SDS011;30039;51.462;6.892;2023-05-10T12:27:23;10.82;;;5.22;;
44328;SDS011;30039;51.462;6.892;2023-05-10T12:30:10;8.25;;;5.15;;
44328;SDS011;30039;51.462;6.892;2023-05-10T12:33:14;12.27;;;5.07;;
44328;SDS011;30039;51.462;6.892;2023-05-10T12:36:03;11.18;;;5.07;;
44328;SDS011;30039;51.462;6.892;2023-05-10T12:38:49;11.10;;;4.55;;
44328;SDS011;30039;51.462;6.892;2023-05-10T12:41:35;7.20;;;4.53;;
44328;SDS011;30039;51.462;6.892;2023-05-10T12:44:21;11.40;;;4.28;;
44328;SDS011;30039;51.462;6.892;2023-05-10T12:47:06;5.35;;;3.75;;
44328;SDS011;30039;51.462;6.892;2023-05-10T12:49:52;5.95;;;4.25;;
44328;SDS011;30039;51.462;6.892;2023-05-10T12:52:38;6.82;;;3.65;;
44328;SDS011;30039;51.462;6.892;2023-05-10T12:55:23;6.97;;;3.88;;
44328;SDS011;30039;51.462;6.892;2023-05-10T12:58:09;7.13;;;3.72;;
44328;SDS011;30039;51.462;6.892;2023-05-10T13:00:55;5.88;;;3.60;;
44328;SDS011;30039;51.462;6.892;2023-05-10T13:03:41;5.80;;;3.97;;
44328;SDS011;30039;51.462;6.892;2023-05-10T13:06:28;4.90;;;3.42;;
44328;SDS011;30039;51.462;6.892;2023-05-10T13:09:14;5.82;;;3.20;;
44328;SDS011;30039;51.462;6.892;2023-05-10T13:12:00;7.80;;;3.45;;
44328;SDS011;30039;51.462;6.892;2023-05-10T13:14:47;6.07;;;3.65;;
44328;SDS011;30039;51.462;6.892;2023-05-10T13:17:32;6.55;;;3.78;;
44328;SDS011;30039;51.462;6.892;2023-05-10T13:20:18;9.48;;;3.83;;
44328;SDS011;30039;51.462;6.892;2023-05-10T13:23:04;4.85;;;3.05;;
44328;SDS011;30039;51.462;6.892;2023-05-10T13:25:49;6.20;;;3.38;;
44328;SDS011;30039;51.462;6.892;2023-05-10T13:28:35;5.18;;;3.63;;
44328;SDS011;30039;51.462;6.892;2023-05-10T13:31:21;6.00;;;3.80;;
44328;SDS011;30039;51.462;6.892;2023-05-10T13:34:06;6.78;;;4.10;;
44328;SDS011;30039;51.462;6.892;2023-05-10T13:36:52;6.18;;;2.97;;
44328;SDS011;30039;51.462;6.892;2023-05-10T13:39:39;8.10;;;2.75;;
44328;SDS011;30039;51.462;6.892;2023-05-10T13:42:24;4.82;;;3.10;;
44328;SDS011;30039;51.462;6.892;2023-05-10T13:45:10;9.32;;;3.72;;
44328;SDS011;30039;51.462;6.892;2023-05-10T13:47:58;3.33;;;2.42;;
44328;SDS011;30039;51.462;6.892;2023-05-10T13:50:46;5.82;;;3.47;;
44328;SDS011;30039;51.462;6.892;2023-05-10T13:53:33;6.07;;;3.22;;
44328;SDS011;30039;51.462;6.892;2023-05-10T13:56:19;4.13;;;3.22;;
44328;SDS011;30039;51.462;6.892;2023-05-10T13:59:04;8.18;;;4.03;;
44328;SDS011;30039;51.462;6.892;2023-05-10T14:01:50;7.63;;;3.72;;
44328;SDS011;30039;51.462;6.892;2023-05-10T14:04:36;10.55;;;3.97;;
44328;SDS011;30039;51.462;6.892;2023-05-10T14:07:21;6.63;;;3.72;;
44328;SDS011;30039;51.462;6.892;2023-05-10T14:10:07;7.05;;;3.50;;
44328;SDS011;30039;51.462;6.892;2023-05-10T14:12:53;7.25;;;4.32;;
44328;SDS011;30039;51.462;6.892;2023-05-10T14:15:39;5.93;;;4.15;;
44328;SDS011;30039;51.462;6.892;2023-05-10T14:18:26;5.75;;;3.45;;
44328;SDS011;30039;51.462;6.892;2023-05-10T14:21:12;6.13;;;4.55;;
44328;SDS011;30039;51.462;6.892;2023-05-10T14:23:57;10.18;;;5.05;;
44328;SDS011;30039;51.462;6.892;2023-05-10T14:26:43;6.93;;;4.63;;
44328;SDS011;30039;51.462;6.892;2023-05-10T14:29:29;5.82;;;4.32;;
44328;SDS011;30039;51.462;6.892;2023-05-10T14:32:15;8.75;;;4.32;;
44328;SDS011;30039;51.462;6.892;2023-05-10T14:35:00;6.10;;;3.85;;
44328;SDS011;30039;51.462;6.892;2023-05-10T14:37:46;6.13;;;4.10;;
44328;SDS011;30039;51.462;6.892;2023-05-10T14:40:32;8.52;;;4.70;;
44328;SDS011;30039;51.462;6.892;2023-05-10T14:43:17;7.18;;;5.15;;
44328;SDS011;30039;51.462;6.892;2023-05-10T14:46:03;7.70;;;5.57;;
44328;SDS011;30039;51.462;6.892;2023-05-10T14:48:50;8.20;;;4.90;;
44328;SDS011;30039;51.462;6.892;2023-05-10T14:51:36;5.95;;;4.18;;
44328;SDS011;30039;51.462;6.892;2023-05-10T14:54:24;7.60;;;5.28;;
44328;SDS011;30039;51.462;6.892;2023-05-10T14:57:14;7.20;;;5.27;;
44328;SDS011;30039;51.462;6.892;2023-05-10T15:00:04;7.65;;;5.18;;
44328;SDS011;30039;51.462;6.892;2023-05-10T15:02:53;9.05;;;5.03;;
44328;SDS011;30039;51.462;6.892;2023-05-10T15:09:26;7.57;;;4.38;;
44328;SDS011;30039;51.462;6.892;2023-05-10T15:12:19;10.75;;;6.03;;
44328;SDS011;30039;51.462;6.892;2023-05-10T15:15:26;7.50;;;5.38;;
44328;SDS011;30039;51.462;6.892;2023-05-10T15:18:19;9.57;;;5.90;;
44328;SDS011;30039;51.462;6.892;2023-05-10T15:31:45;10.32;;;6.70;;
44328;SDS011;30039;51.462;6.892;2023-05-10T15:34:58;9.43;;;6.28;;
44328;SDS011;30039;51.462;6.892;2023-05-10T15:37:46;9.80;;;6.35;;
44328;SDS011;30039;51.462;6.892;2023-05-10T15:40:31;11.82;;;7.53;;
44328;SDS011;30039;51.462;6.892;2023-05-10T15:43:17;12.02;;;6.80;;
44328;SDS011;30039;51.462;6.892;2023-05-10T15:46:03;9.85;;;6.18;;
44328;SDS011;30039;51.462;6.892;2023-05-10T15:48:51;10.82;;;6.55;;
44328;SDS011;30039;51.462;6.892;2023-05-10T15:51:37;13.35;;;6.35;;
44328;SDS011;30039;51.462;6.892;2023-05-10T15:54:22;10.40;;;6.55;;
44328;SDS011;30039;51.462;6.892;2023-05-10T15:57:17;13.25;;;8.85;;
44328;SDS011;30039;51.462;6.892;2023-05-10T16:00:10;12.38;;;7.85;;
44328;SDS011;30039;51.462;6.892;2023-05-10T16:03:09;10.48;;;5.40;;
44328;SDS011;30039;51.462;6.892;2023-05-10T16:06:00;6.60;;;3.50;;
44328;SDS011;30039;51.462;6.892;2023-05-10T16:08:54;8.30;;;3.53;;
44328;SDS011;30039;51.462;6.892;2023-05-10T16:18:20;2.53;;;1.67;;
44328;SDS011;30039;51.462;6.892;2023-05-10T16:21:21;7.07;;;1.98;;
44328;SDS011;30039;51.462;6.892;2023-05-10T16:27:16;5.25;;;2.55;;
44328;SDS011;30039;51.462;6.892;2023-05-10T16:33:34;5.50;;;3.03;;
44328;SDS011;30039;51.462;6.892;2023-05-10T16:46:42;6.90;;;3.17;;
44328;SDS011;30039;51.462;6.892;2023-05-10T16:49:28;6.57;;;2.80;;
44328;SDS011;30039;51.462;6.892;2023-05-10T16:52:14;8.05;;;3.35;;
44328;SDS011;30039;51.462;6.892;2023-05-10T16:54:59;8.27;;;3.42;;
44328;SDS011;30039;51.462;6.892;2023-05-10T16:57:47;10.45;;;3.90;;
44328;SDS011;30039;51.462;6.892;2023-05-10T17:00:33;6.15;;;3.40;;
44328;SDS011;30039;51.462;6.892;2023-05-10T17:03:20;9.30;;;4.10;;
44328;SDS011;30039;51.462;6.892;2023-05-10T17:06:06;7.07;;;3.45;;
44328;SDS011;30039;51.462;6.892;2023-05-10T17:08:52;6.68;;;3.72;;
44328;SDS011;30039;51.462;6.892;2023-05-10T17:11:42;5.88;;;3.20;;
44328;SDS011;30039;51.462;6.892;2023-05-10T17:14:28;7.63;;;3.60;;
44328;SDS011;30039;51.462;6.892;2023-05-10T17:17:14;5.88;;;3.78;;
44328;SDS011;30039;51.462;6.892;2023-05-10T17:19:59;5.70;;;3.55;;
44328;SDS011;30039;51.462;6.892;2023-05-10T17:22:45;7.93;;;3.92;;
44328;SDS011;30039;51.462;6.892;2023-05-10T17:25:31;4.50;;;2.95;;
44328;SDS011;30039;51.462;6.892;2023-05-10T17:28:16;5.85;;;3.92;;
44328;SDS011;30039;51.462;6.892;2023-05-10T17:31:04;7.57;;;3.67;;
44328;SDS011;30039;51.462;6.892;2023-05-10T17:33:50;6.43;;;3.70;;
44328;SDS011;30039;51.462;6.892;2023-05-10T17:36:35;6.00;;;3.63;;
44328;SDS011;30039;51.462;6.892;2023-05-10T17:39:21;9.73;;;3.55;;
44328;SDS011;30039;51.462;6.892;2023-05-10T17:42:08;7.45;;;3.58;;
44328;SDS011;30039;51.462;6.892;2023-05-10T17:44:54;6.88;;;3.58;;